createdAt,value
2023-04-07T00:01:45.725Z,9.67
2023-04-07T00:04:32.845Z,9.64
2023-04-07T00:07:19.784Z,9.59
2023-04-07T00:10:07.748Z,9.56
2023-04-07T00:12:54.696Z,9.54
2023-04-07T00:15:41.595Z,9.50
2023-04-07T00:18:28.414Z,9.47
2023-04-07T00:21:15.246Z,9.43
2023-04-07T00:24:02.118Z,9.40
2023-04-07T00:26:48.988Z,9.37
2023-04-07T00:29:35.872Z,9.36
2023-04-07T00:32:23.094Z,9.32
2023-04-07T00:35:10.324Z,9.29
2023-04-07T00:37:57.194Z,9.25
2023-04-07T00:40:44.068Z,9.22
2023-04-07T00:43:30.907Z,9.19
2023-04-07T00:46:18.901Z,9.16
2023-04-07T00:49:07.050Z,9.14
2023-04-07T00:51:56.140Z,9.10
2023-04-07T00:54:43.380Z,9.08
2023-04-07T00:57:30.313Z,9.04
2023-04-07T01:00:19.867Z,9.00
2023-04-07T01:03:10.963Z,8.97
2023-04-07T01:06:06.830Z,8.95
2023-04-07T01:09:13.803Z,8.91
2023-04-07T01:12:21.247Z,8.87
2023-04-07T01:15:10.951Z,8.86
2023-04-07T01:18:13.922Z,8.83
2023-04-07T01:21:06.712Z,8.78
2023-04-07T01:24:12.247Z,8.76
2023-04-07T01:27:21.849Z,8.72
2023-04-07T01:30:13.375Z,8.70
2023-04-07T01:33:00.946Z,8.65
2023-04-07T01:35:48.634Z,8.63
2023-04-07T01:38:36.028Z,8.60
2023-04-07T01:41:23.906Z,8.56
2023-04-07T01:44:11.677Z,8.53
2023-04-07T01:46:59.845Z,8.51
2023-04-07T01:49:47.144Z,8.48
2023-04-07T01:52:35.244Z,8.44
2023-04-07T01:55:22.635Z,8.41
2023-04-07T01:58:12.114Z,8.39
2023-04-07T02:00:59.750Z,8.38
2023-04-07T02:03:51.496Z,8.35
2023-04-07T02:07:00.200Z,8.31
2023-04-07T02:09:48.427Z,8.28
2023-04-07T02:12:38.108Z,8.25
2023-04-07T02:15:28.860Z,8.21
2023-04-07T02:18:17.336Z,8.18
2023-04-07T02:21:04.680Z,8.14
2023-04-07T02:23:51.815Z,8.13
2023-04-07T02:26:38.873Z,8.10
2023-04-07T02:29:26.204Z,8.08
2023-04-07T02:32:13.048Z,8.05
2023-04-07T02:34:59.847Z,8.03
2023-04-07T02:37:46.928Z,7.98
2023-04-07T02:40:33.865Z,7.95
2023-04-07T02:43:21.472Z,7.93
2023-04-07T02:46:08.665Z,7.89
2023-04-07T02:48:59.213Z,7.87
2023-04-07T02:51:47.053Z,7.85
2023-04-07T02:54:33.870Z,7.83
2023-04-07T02:57:20.775Z,7.80
2023-04-07T03:00:08.422Z,7.75
2023-04-07T03:02:55.511Z,7.72
2023-04-07T03:05:42.641Z,7.70
2023-04-07T03:08:29.504Z,7.69
2023-04-07T03:11:16.318Z,7.65
2023-04-07T03:14:03.138Z,7.63
2023-04-07T03:16:50.038Z,7.61
2023-04-07T03:19:36.865Z,7.58
2023-04-07T03:22:23.781Z,7.56
2023-04-07T03:25:11.159Z,7.55
2023-04-07T03:27:58.007Z,7.51
2023-04-07T03:30:44.871Z,7.46
2023-04-07T03:33:31.723Z,7.45
2023-04-07T03:36:18.669Z,7.44
2023-04-07T03:39:06.421Z,7.39
2023-04-07T03:41:53.289Z,7.37
2023-04-07T03:44:40.113Z,7.34
2023-04-07T03:47:27.008Z,7.31
2023-04-07T03:50:13.916Z,7.29
2023-04-07T03:53:00.758Z,7.27
2023-04-07T03:55:47.959Z,7.26
2023-04-07T03:58:34.937Z,7.22
2023-04-07T04:01:21.941Z,7.21
2023-04-07T04:04:09.107Z,7.18
2023-04-07T04:06:56.178Z,7.14
2023-04-07T04:09:43.012Z,7.11
2023-04-07T04:12:29.869Z,7.08
2023-04-07T04:15:16.803Z,7.05
2023-04-07T04:18:03.679Z,7.04
2023-04-07T04:20:50.634Z,7.00
2023-04-07T04:23:37.508Z,6.98
2023-04-07T04:26:26.796Z,6.97
2023-04-07T04:29:13.526Z,6.94
2023-04-07T04:32:00.382Z,6.92
2023-04-07T04:34:47.356Z,6.90
2023-04-07T04:37:34.761Z,6.86
2023-04-07T04:40:21.728Z,6.82
2023-04-07T04:43:09.621Z,6.81
2023-04-07T04:45:56.991Z,6.79
2023-04-07T04:48:43.846Z,6.75
2023-04-07T04:51:30.844Z,6.73
2023-04-07T04:54:19.264Z,6.69
2023-04-07T04:57:06.146Z,6.67
2023-04-07T04:59:53.007Z,6.65
2023-04-07T05:02:40.069Z,6.64
2023-04-07T05:05:32.522Z,6.60
2023-04-07T05:08:19.522Z,6.56
2023-04-07T05:11:06.305Z,6.56
2023-04-07T05:13:53.521Z,6.54
2023-04-07T05:16:41.012Z,6.48
2023-04-07T05:19:29.743Z,6.47
2023-04-07T05:22:16.767Z,6.45
2023-04-07T05:25:05.012Z,6.43
2023-04-07T05:27:51.834Z,6.42
2023-04-07T05:30:38.754Z,6.40
2023-04-07T05:33:25.649Z,6.38
2023-04-07T05:36:12.684Z,6.36
2023-04-07T05:38:59.629Z,6.36
2023-04-07T05:41:46.643Z,6.35
2023-04-07T05:44:33.704Z,6.31
2023-04-07T05:47:20.595Z,6.29
2023-04-07T05:50:07.768Z,6.27
2023-04-07T05:52:54.618Z,6.29
2023-04-07T05:55:44.246Z,6.27
2023-04-07T05:58:31.139Z,6.29
2023-04-07T06:01:18.066Z,6.31
2023-04-07T06:04:04.959Z,6.30
2023-04-07T06:06:55.211Z,6.29
2023-04-07T06:09:42.715Z,6.31
2023-04-07T06:12:29.733Z,6.33
2023-04-07T06:15:16.725Z,6.34
2023-04-07T06:18:03.719Z,6.35
2023-04-07T06:20:50.626Z,6.38
2023-04-07T06:23:37.638Z,6.41
2023-04-07T06:26:24.558Z,6.45
2023-04-07T06:29:11.587Z,6.50
2023-04-07T06:31:58.495Z,6.55
2023-04-07T06:34:46.144Z,6.58
2023-04-07T06:37:33.070Z,6.62
2023-04-07T06:40:19.888Z,6.64
2023-04-07T06:43:06.875Z,6.67
2023-04-07T06:45:53.719Z,6.68
2023-04-07T06:48:40.810Z,6.71
2023-04-07T06:51:27.758Z,6.73
2023-04-07T06:54:15.458Z,6.74
2023-04-07T06:57:02.698Z,6.77
2023-04-07T06:59:51.406Z,6.78
2023-04-07T07:02:38.408Z,6.81
2023-04-07T07:05:25.620Z,6.82
2023-04-07T07:08:12.476Z,6.84
2023-04-07T07:10:59.512Z,6.87
2023-04-07T07:13:46.679Z,6.89
2023-04-07T07:16:33.639Z,6.90
2023-04-07T07:19:20.763Z,6.92
2023-04-07T07:22:07.603Z,6.92
2023-04-07T07:24:54.480Z,6.98
2023-04-07T07:27:41.310Z,7.01
2023-04-07T07:30:28.159Z,7.05
2023-04-07T07:33:15.752Z,7.09
2023-04-07T07:36:02.645Z,7.13
2023-04-07T07:38:51.340Z,7.18
2023-04-07T07:41:38.191Z,7.22
2023-04-07T07:44:25.032Z,7.27
2023-04-07T07:47:12.633Z,7.33
2023-04-07T07:49:59.467Z,7.37
2023-04-07T07:52:47.822Z,7.39
2023-04-07T07:55:34.750Z,7.45
2023-04-07T07:58:22.034Z,7.50
2023-04-07T08:01:09.024Z,7.55
2023-04-07T08:03:56.203Z,7.59
2023-04-07T08:06:43.119Z,7.63
2023-04-07T08:09:30.411Z,7.67
2023-04-07T08:12:17.238Z,7.76
2023-04-07T08:15:04.658Z,7.81
2023-04-07T08:17:52.212Z,7.89
2023-04-07T08:20:40.812Z,7.96
2023-04-07T08:23:27.747Z,8.01
2023-04-07T08:26:14.683Z,8.08
2023-04-07T08:29:01.596Z,8.15
2023-04-07T08:31:48.432Z,8.22
2023-04-07T08:34:35.516Z,8.29
2023-04-07T08:37:22.339Z,8.35
2023-04-07T08:40:09.656Z,8.42
2023-04-07T08:42:58.077Z,8.50
2023-04-07T08:45:46.660Z,8.57
2023-04-07T08:48:34.251Z,8.64
2023-04-07T08:51:30.296Z,8.70
2023-04-07T08:54:19.058Z,8.77
2023-04-07T08:57:06.208Z,8.84
2023-04-07T08:59:53.263Z,8.91
2023-04-07T09:02:48.842Z,8.98
2023-04-07T09:05:35.946Z,9.02
2023-04-07T09:08:22.777Z,9.07
2023-04-07T09:11:09.746Z,9.13
2023-04-07T09:13:56.956Z,9.20
2023-04-07T09:16:44.010Z,9.26
2023-04-07T09:19:31.183Z,9.30
2023-04-07T09:22:42.470Z,9.35
2023-04-07T09:25:30.377Z,9.41
2023-04-07T09:28:17.230Z,9.46
2023-04-07T09:31:04.130Z,9.50
2023-04-07T09:33:51.067Z,9.56
2023-04-07T09:36:42.349Z,9.61
2023-04-07T09:39:29.537Z,9.68
2023-04-07T09:42:16.498Z,9.72
2023-04-07T09:45:03.744Z,9.79
2023-04-07T09:47:51.877Z,9.86
2023-04-07T09:50:41.630Z,9.91
2023-04-07T09:53:50.340Z,9.97
2023-04-07T09:56:37.593Z,10.01
2023-04-07T09:59:25.853Z,10.08
2023-04-07T10:02:12.955Z,10.14
2023-04-07T10:05:00.002Z,10.22
2023-04-07T10:07:47.939Z,10.27
2023-04-07T10:10:38.601Z,10.34
2023-04-07T10:13:25.950Z,10.40
2023-04-07T10:16:13.001Z,10.45
2023-04-07T10:18:59.936Z,10.47
2023-04-07T10:21:49.273Z,10.50
2023-04-07T10:24:55.256Z,10.56
2023-04-07T10:27:55.110Z,10.61
2023-04-07T10:30:42.256Z,10.68
2023-04-07T10:33:49.813Z,10.74
2023-04-07T10:36:37.251Z,10.79
2023-04-07T10:39:24.244Z,10.84
2023-04-07T10:42:38.973Z,10.92
2023-04-07T10:45:52.338Z,11.02
2023-04-07T10:48:39.342Z,11.13
2023-04-07T10:51:26.209Z,11.19
2023-04-07T10:54:17.783Z,11.24
2023-04-07T10:57:13.351Z,11.28
2023-04-07T11:00:12.472Z,11.32
2023-04-07T11:02:59.317Z,11.37
2023-04-07T11:05:46.220Z,11.44
2023-04-07T11:08:40.512Z,11.50
2023-04-07T11:11:38.958Z,11.55
2023-04-07T11:14:30.681Z,11.63
2023-04-07T11:17:17.594Z,11.69
2023-04-07T11:20:04.818Z,11.76
2023-04-07T11:23:00.933Z,11.84
2023-04-07T11:25:49.245Z,11.92
2023-04-07T11:28:37.931Z,11.97
2023-04-07T11:31:26.409Z,12.01
2023-04-07T11:34:14.121Z,12.09
2023-04-07T11:37:28.835Z,12.17
2023-04-07T11:40:33.424Z,12.26
2023-04-07T11:43:28.011Z,12.31
2023-04-07T11:46:17.467Z,12.37
2023-04-07T11:49:15.578Z,12.44
2023-04-07T11:52:05.673Z,12.51
2023-04-07T11:54:53.170Z,12.56
2023-04-07T11:57:39.993Z,12.62
2023-04-07T12:00:27.383Z,12.67
2023-04-07T12:03:15.015Z,12.71
2023-04-07T12:06:05.569Z,12.75
2023-04-07T12:08:52.486Z,12.80
2023-04-07T12:11:49.537Z,12.85
2023-04-07T12:14:37.274Z,12.88
2023-04-07T12:17:25.270Z,12.92
2023-04-07T12:20:12.380Z,12.94
2023-04-07T12:23:00.210Z,13.01
2023-04-07T12:25:47.757Z,13.06
2023-04-07T12:28:34.612Z,13.09
2023-04-07T12:31:21.740Z,13.11
2023-04-07T12:34:08.604Z,13.12
2023-04-07T12:36:55.451Z,13.15
2023-04-07T12:39:42.621Z,13.19
2023-04-07T12:42:29.489Z,13.22
2023-04-07T12:45:16.458Z,13.24
2023-04-07T12:48:03.442Z,13.29
2023-04-07T12:50:50.348Z,13.32
2023-04-07T12:53:37.379Z,13.36
2023-04-07T12:56:24.284Z,13.38
2023-04-07T12:59:11.583Z,13.41
2023-04-07T13:01:58.748Z,13.46
2023-04-07T13:04:46.877Z,13.49
2023-04-07T13:07:35.096Z,13.53
2023-04-07T13:10:21.951Z,13.57
2023-04-07T13:13:08.815Z,13.60
2023-04-07T13:15:55.642Z,13.57
2023-04-07T13:18:42.794Z,13.44
2023-04-07T13:21:45.232Z,13.44
2023-04-07T13:24:33.030Z,13.54
2023-04-07T13:27:19.904Z,13.62
2023-04-07T13:30:07.464Z,13.68
2023-04-07T13:32:54.533Z,13.74
2023-04-07T13:35:41.402Z,13.77
2023-04-07T13:38:28.266Z,13.78
2023-04-07T13:41:15.386Z,13.83
2023-04-07T13:44:02.288Z,13.89
2023-04-07T13:46:49.505Z,13.93
2023-04-07T13:49:36.484Z,13.95
2023-04-07T13:52:23.477Z,13.97
2023-04-07T13:55:10.570Z,14.00
2023-04-07T13:57:57.391Z,14.01
2023-04-07T14:00:44.284Z,14.02
2023-04-07T14:03:31.851Z,14.03
2023-04-07T14:06:22.427Z,14.07
2023-04-07T14:09:09.381Z,14.10
2023-04-07T14:11:57.315Z,14.11
2023-04-07T14:14:44.162Z,14.13
2023-04-07T14:17:31.286Z,14.15
2023-04-07T14:20:18.224Z,14.19
2023-04-07T14:23:05.069Z,14.20
2023-04-07T14:25:51.973Z,14.22
2023-04-07T14:28:38.974Z,14.27
2023-04-07T14:31:26.086Z,14.31
2023-04-07T14:34:12.981Z,14.35
2023-04-07T14:36:59.846Z,14.38
2023-04-07T14:40:01.491Z,14.44
2023-04-07T14:42:49.158Z,14.49
2023-04-07T14:45:36.200Z,14.51
2023-04-07T14:48:23.327Z,14.56
2023-04-07T14:51:12.687Z,14.60
2023-04-07T14:53:59.504Z,14.61
2023-04-07T14:56:46.356Z,14.62
2023-04-07T14:59:33.249Z,14.63
2023-04-07T15:02:20.283Z,14.69
2023-04-07T15:05:07.750Z,14.75
2023-04-07T15:07:54.649Z,14.79
2023-04-07T15:10:41.555Z,14.82
2023-04-07T15:13:28.406Z,14.83
2023-04-07T15:16:16.124Z,14.84
2023-04-07T15:19:03.024Z,14.87
2023-04-07T15:21:49.863Z,14.87
2023-04-07T15:24:36.701Z,14.89
2023-04-07T15:27:23.624Z,14.90
2023-04-07T15:30:11.567Z,14.91
2023-04-07T15:33:04.844Z,14.92
2023-04-07T15:35:51.968Z,14.91
2023-04-07T15:38:39.353Z,14.92
2023-04-07T15:41:27.287Z,14.92
2023-04-07T15:44:17.955Z,14.91
2023-04-07T15:47:05.033Z,14.90
2023-04-07T15:49:51.902Z,14.90
2023-04-07T15:52:38.762Z,14.89
2023-04-07T15:55:25.657Z,14.90
2023-04-07T15:58:12.521Z,14.91
2023-04-07T16:00:59.918Z,14.89
2023-04-07T16:03:47.473Z,14.90
2023-04-07T16:06:34.682Z,14.90
2023-04-07T16:09:21.522Z,14.91
2023-04-07T16:12:08.451Z,14.90
2023-04-07T16:14:55.412Z,14.91
2023-04-07T16:17:43.672Z,14.91
2023-04-07T16:20:30.608Z,14.91
2023-04-07T16:23:17.474Z,14.91
2023-04-07T16:26:04.557Z,14.91
2023-04-07T16:28:51.505Z,14.91
2023-04-07T16:31:38.769Z,14.91
2023-04-07T16:34:25.756Z,14.91
2023-04-07T16:37:12.924Z,14.91
2023-04-07T16:39:59.822Z,14.91
2023-04-07T16:42:47.328Z,14.90
2023-04-07T16:45:34.483Z,14.90
2023-04-07T16:48:21.337Z,14.90
2023-04-07T16:51:08.245Z,14.90
2023-04-07T16:53:55.132Z,14.90
2023-04-07T16:56:41.980Z,14.87
2023-04-07T16:59:28.836Z,14.87
2023-04-07T17:02:18.761Z,14.86
2023-04-07T17:05:06.292Z,14.87
2023-04-07T17:07:53.592Z,14.87
2023-04-07T17:10:41.144Z,14.86
2023-04-07T17:13:27.937Z,14.86
2023-04-07T17:16:14.984Z,14.84
2023-04-07T17:19:01.852Z,14.82
2023-04-07T17:21:48.925Z,14.81
2023-04-07T17:24:35.735Z,14.80
2023-04-07T17:27:22.551Z,14.78
2023-04-07T17:30:09.744Z,14.76
2023-04-07T17:32:56.784Z,14.74
2023-04-07T17:35:43.723Z,14.72
2023-04-07T17:38:31.041Z,14.71
2023-04-07T17:41:19.366Z,14.68
2023-04-07T17:44:06.232Z,14.66
2023-04-07T17:46:54.064Z,14.64
2023-04-07T17:49:42.138Z,14.61
2023-04-07T17:52:30.499Z,14.59
2023-04-07T17:55:17.744Z,14.58
2023-04-07T17:58:04.795Z,14.55
2023-04-07T18:00:51.895Z,14.52
2023-04-07T18:03:38.948Z,14.51
2023-04-07T18:06:25.925Z,14.49
2023-04-07T18:09:12.824Z,14.44
2023-04-07T18:12:01.582Z,14.39
2023-04-07T18:14:48.482Z,14.36
2023-04-07T18:17:35.434Z,14.33
2023-04-07T18:20:22.289Z,14.31
2023-04-07T18:23:09.653Z,14.29
2023-04-07T18:25:56.483Z,14.27
2023-04-07T18:28:43.360Z,14.25
2023-04-07T18:31:30.270Z,14.25
2023-04-07T18:34:17.123Z,14.23
2023-04-07T18:37:04.039Z,14.23
2023-04-07T18:39:52.199Z,14.25
2023-04-07T18:42:39.057Z,14.27
2023-04-07T18:45:26.114Z,14.29
2023-04-07T18:48:13.111Z,14.30
2023-04-07T18:50:59.981Z,14.33
2023-04-07T18:53:46.924Z,14.32
2023-04-07T18:56:33.940Z,14.32
2023-04-07T18:59:20.809Z,14.34
2023-04-07T19:02:07.797Z,14.37
2023-04-07T19:04:54.705Z,14.36
2023-04-07T19:07:41.725Z,14.34
2023-04-07T19:10:28.536Z,14.34
2023-04-07T19:13:17.814Z,14.37
2023-04-07T19:16:05.142Z,14.37
2023-04-07T19:18:53.237Z,14.38
2023-04-07T19:21:41.166Z,14.38
2023-04-07T19:24:28.121Z,14.38
2023-04-07T19:27:14.987Z,14.37
2023-04-07T19:30:01.958Z,14.36
2023-04-07T19:32:49.030Z,14.37
2023-04-07T19:35:37.284Z,14.35
2023-04-07T19:38:24.183Z,14.32
2023-04-07T19:41:11.322Z,14.30
2023-04-07T19:43:58.374Z,14.29
2023-04-07T19:46:45.263Z,14.27
2023-04-07T19:49:32.121Z,14.24
2023-04-07T19:52:18.991Z,14.21
2023-04-07T19:55:06.191Z,14.17
2023-04-07T19:57:53.053Z,14.15
2023-04-07T20:00:40.726Z,14.14
2023-04-07T20:03:28.143Z,14.11
2023-04-07T20:06:15.489Z,14.10
2023-04-07T20:09:02.555Z,14.07
2023-04-07T20:11:49.642Z,14.04
2023-04-07T20:14:37.742Z,14.01
2023-04-07T20:17:24.776Z,13.99
2023-04-07T20:20:12.232Z,13.94
2023-04-07T20:22:59.082Z,13.91
2023-04-07T20:25:46.321Z,13.88
2023-04-07T20:28:33.221Z,13.84
2023-04-07T20:31:20.260Z,13.83
2023-04-07T20:34:07.133Z,13.82
2023-04-07T20:36:53.960Z,13.78
2023-04-07T20:39:40.806Z,13.75
2023-04-07T20:42:27.656Z,13.72
2023-04-07T20:45:14.550Z,13.70
2023-04-07T20:48:01.555Z,13.67
2023-04-07T20:50:48.576Z,13.64
2023-04-07T20:53:36.213Z,13.62
2023-04-07T20:56:23.824Z,13.60
2023-04-07T20:59:10.758Z,13.56
2023-04-07T21:01:57.780Z,13.54
2023-04-07T21:04:44.818Z,13.50
2023-04-07T21:07:31.738Z,13.48
2023-04-07T21:10:18.709Z,13.45
2023-04-07T21:13:05.810Z,13.42
2023-04-07T21:15:52.784Z,13.41
2023-04-07T21:18:39.714Z,13.38
2023-04-07T21:21:26.627Z,13.35
2023-04-07T21:24:13.506Z,13.33
2023-04-07T21:27:01.113Z,13.29
2023-04-07T21:29:48.230Z,13.27
2023-04-07T21:32:35.168Z,13.24
2023-04-07T21:35:22.260Z,13.21
2023-04-07T21:38:10.234Z,13.18
2023-04-07T21:40:57.659Z,13.15
2023-04-07T21:43:44.530Z,13.13
2023-04-07T21:46:33.207Z,13.10
2023-04-07T21:49:22.343Z,13.07
2023-04-07T21:52:09.221Z,13.05
2023-04-07T21:54:56.402Z,13.01
2023-04-07T21:57:43.326Z,12.98
2023-04-07T22:00:30.554Z,12.96
2023-04-07T22:03:17.619Z,12.95
2023-04-07T22:06:04.846Z,12.91
2023-04-07T22:09:00.471Z,12.89
2023-04-07T22:11:48.285Z,12.88
2023-04-07T22:14:35.126Z,12.85
2023-04-07T22:17:21.952Z,12.81
2023-04-07T22:20:10.378Z,12.77
2023-04-07T22:22:57.632Z,12.77
2023-04-07T22:25:44.706Z,12.77
2023-04-07T22:28:31.522Z,12.77
2023-04-07T22:31:18.373Z,12.75
2023-04-07T22:34:05.405Z,12.72
2023-04-07T22:36:52.334Z,12.70
2023-04-07T22:39:39.272Z,12.67
2023-04-07T22:42:26.125Z,12.66
2023-04-07T22:45:13.056Z,12.64
2023-04-07T22:47:59.904Z,12.61
2023-04-07T22:50:46.858Z,12.60
2023-04-07T22:53:33.739Z,12.57
2023-04-07T22:56:20.644Z,12.55
2023-04-07T22:59:07.516Z,12.53
2023-04-07T23:01:56.358Z,12.51
2023-04-07T23:04:44.397Z,12.48
2023-04-07T23:07:31.390Z,12.47
2023-04-07T23:10:18.339Z,12.46
2023-04-07T23:13:05.189Z,12.44
2023-04-07T23:15:52.061Z,12.41
2023-04-07T23:18:40.000Z,12.38
2023-04-07T23:21:29.643Z,12.37
2023-04-07T23:24:18.102Z,12.36
2023-04-07T23:27:05.017Z,12.34
2023-04-07T23:29:52.036Z,12.32
2023-04-07T23:32:38.954Z,12.32
2023-04-07T23:35:25.920Z,12.30
2023-04-07T23:38:13.293Z,12.28
2023-04-07T23:41:00.129Z,12.24
2023-04-07T23:43:46.961Z,12.23
2023-04-07T23:46:33.979Z,12.20
2023-04-07T23:49:20.789Z,12.18
2023-04-07T23:52:07.818Z,12.17
2023-04-07T23:54:54.712Z,12.15
2023-04-07T23:57:41.549Z,12.14
